sensor_id;sensor_type;location;lat;lon;timestamp;P1;durP1;ratioP1;P2;durP2;ratioP2
40847;SDS011;26570;50.962;5.340;2023-05-14T00:03:04;5.13;;;4.70;;
40847;SDS011;26570;50.962;5.340;2023-05-14T00:06:12;5.97;;;5.07;;
40847;SDS011;26570;50.962;5.340;2023-05-14T00:09:20;5.27;;;4.53;;
40847;SDS011;26570;50.962;5.340;2023-05-14T00:12:05;5.40;;;4.90;;
40847;SDS011;26570;50.962;5.340;2023-05-14T00:14:51;6.23;;;5.07;;
40847;SDS011;26570;50.962;5.340;2023-05-14T00:17:37;5.80;;;5.20;;
40847;SDS011;26570;50.962;5.340;2023-05-14T00:20:22;6.57;;;5.43;;
40847;SDS011;26570;50.962;5.340;2023-05-14T00:23:08;7.00;;;6.40;;
40847;SDS011;26570;50.962;5.340;2023-05-14T00:25:53;8.27;;;6.93;;
40847;SDS011;26570;50.962;5.340;2023-05-14T00:28:38;9.00;;;6.80;;
40847;SDS011;26570;50.962;5.340;2023-05-14T00:31:24;7.73;;;7.03;;
40847;SDS011;26570;50.962;5.340;2023-05-14T00:34:31;6.40;;;5.50;;
40847;SDS011;26570;50.962;5.340;2023-05-14T00:37:17;11.97;;;6.20;;
40847;SDS011;26570;50.962;5.340;2023-05-14T00:40:02;7.80;;;6.93;;
40847;SDS011;26570;50.962;5.340;2023-05-14T00:42:50;8.60;;;7.80;;
40847;SDS011;26570;50.962;5.340;2023-05-14T00:45:35;8.87;;;7.30;;
40847;SDS011;26570;50.962;5.340;2023-05-14T00:48:21;8.87;;;5.37;;
40847;SDS011;26570;50.962;5.340;2023-05-14T00:51:07;7.30;;;6.60;;
40847;SDS011;26570;50.962;5.340;2023-05-14T00:53:53;6.77;;;6.07;;
40847;SDS011;26570;50.962;5.340;2023-05-14T00:56:39;10.87;;;7.40;;
40847;SDS011;26570;50.962;5.340;2023-05-14T00:59:25;8.20;;;7.40;;
40847;SDS011;26570;50.962;5.340;2023-05-14T01:02:10;7.50;;;6.87;;
40847;SDS011;26570;50.962;5.340;2023-05-14T01:04:56;8.40;;;7.60;;
40847;SDS011;26570;50.962;5.340;2023-05-14T01:10:58;8.27;;;7.47;;
40847;SDS011;26570;50.962;5.340;2023-05-14T01:13:51;9.83;;;8.23;;
40847;SDS011;26570;50.962;5.340;2023-05-14T01:16:41;12.83;;;8.90;;
40847;SDS011;26570;50.962;5.340;2023-05-14T01:19:44;10.50;;;8.47;;
40847;SDS011;26570;50.962;5.340;2023-05-14T01:22:34;9.53;;;8.60;;
40847;SDS011;26570;50.962;5.340;2023-05-14T01:25:20;10.47;;;8.23;;
40847;SDS011;26570;50.962;5.340;2023-05-14T01:34:15;11.43;;;9.80;;
40847;SDS011;26570;50.962;5.340;2023-05-14T01:37:04;10.73;;;9.63;;
40847;SDS011;26570;50.962;5.340;2023-05-14T01:39:50;12.77;;;9.27;;
40847;SDS011;26570;50.962;5.340;2023-05-14T01:42:37;11.03;;;9.90;;
40847;SDS011;26570;50.962;5.340;2023-05-14T01:45:22;17.40;;;11.43;;
40847;SDS011;26570;50.962;5.340;2023-05-14T01:48:08;15.30;;;12.73;;
40847;SDS011;26570;50.962;5.340;2023-05-14T01:50:53;16.00;;;11.13;;
40847;SDS011;26570;50.962;5.340;2023-05-14T01:53:38;11.53;;;10.20;;
40847;SDS011;26570;50.962;5.340;2023-05-14T01:56:23;12.47;;;9.70;;
40847;SDS011;26570;50.962;5.340;2023-05-14T01:59:09;10.73;;;9.43;;
40847;SDS011;26570;50.962;5.340;2023-05-14T02:01:54;11.17;;;9.07;;
40847;SDS011;26570;50.962;5.340;2023-05-14T02:04:39;9.10;;;8.30;;
40847;SDS011;26570;50.962;5.340;2023-05-14T02:07:25;12.77;;;10.13;;
40847;SDS011;26570;50.962;5.340;2023-05-14T02:10:10;10.67;;;9.47;;
40847;SDS011;26570;50.962;5.340;2023-05-14T02:13:18;12.90;;;10.73;;
40847;SDS011;26570;50.962;5.340;2023-05-14T02:16:03;11.13;;;10.03;;
40847;SDS011;26570;50.962;5.340;2023-05-14T02:18:49;12.77;;;11.47;;
40847;SDS011;26570;50.962;5.340;2023-05-14T02:21:34;15.00;;;12.53;;
40847;SDS011;26570;50.962;5.340;2023-05-14T02:24:19;14.43;;;12.03;;
40847;SDS011;26570;50.962;5.340;2023-05-14T02:27:05;19.17;;;11.33;;
40847;SDS011;26570;50.962;5.340;2023-05-14T02:29:51;12.27;;;10.97;;
40847;SDS011;26570;50.962;5.340;2023-05-14T02:32:36;11.17;;;10.07;;
40847;SDS011;26570;50.962;5.340;2023-05-14T02:35:21;14.50;;;11.70;;
40847;SDS011;26570;50.962;5.340;2023-05-14T02:38:07;12.43;;;10.63;;
40847;SDS011;26570;50.962;5.340;2023-05-14T02:40:52;14.27;;;11.77;;
40847;SDS011;26570;50.962;5.340;2023-05-14T02:43:37;12.90;;;11.63;;
40847;SDS011;26570;50.962;5.340;2023-05-14T02:46:45;15.87;;;12.23;;
40847;SDS011;26570;50.962;5.340;2023-05-14T02:49:52;16.67;;;12.50;;
40847;SDS011;26570;50.962;5.340;2023-05-14T02:53:00;12.43;;;11.13;;
40847;SDS011;26570;50.962;5.340;2023-05-14T02:55:45;14.83;;;12.73;;
40847;SDS011;26570;50.962;5.340;2023-05-14T02:58:30;14.57;;;12.70;;
40847;SDS011;26570;50.962;5.340;2023-05-14T03:01:15;14.73;;;12.83;;
40847;SDS011;26570;50.962;5.340;2023-05-14T03:04:01;13.90;;;11.73;;
40847;SDS011;26570;50.962;5.340;2023-05-14T03:07:09;16.07;;;13.00;;
40847;SDS011;26570;50.962;5.340;2023-05-14T03:09:54;18.13;;;13.37;;
40847;SDS011;26570;50.962;5.340;2023-05-14T03:12:39;14.77;;;12.67;;
40847;SDS011;26570;50.962;5.340;2023-05-14T03:15:47;26.07;;;18.80;;
40847;SDS011;26570;50.962;5.340;2023-05-14T03:18:32;27.07;;;20.37;;
40847;SDS011;26570;50.962;5.340;2023-05-14T03:21:20;25.23;;;19.20;;
40847;SDS011;26570;50.962;5.340;2023-05-14T03:24:05;23.47;;;18.47;;
40847;SDS011;26570;50.962;5.340;2023-05-14T03:26:50;23.77;;;18.93;;
40847;SDS011;26570;50.962;5.340;2023-05-14T03:29:36;27.83;;;19.97;;
40847;SDS011;26570;50.962;5.340;2023-05-14T03:32:21;25.83;;;18.27;;
40847;SDS011;26570;50.962;5.340;2023-05-14T03:35:29;24.37;;;18.10;;
40847;SDS011;26570;50.962;5.340;2023-05-14T03:38:14;21.73;;;17.13;;
40847;SDS011;26570;50.962;5.340;2023-05-14T03:41:00;23.83;;;18.70;;
40847;SDS011;26570;50.962;5.340;2023-05-14T03:43:45;25.07;;;17.03;;
40847;SDS011;26570;50.962;5.340;2023-05-14T03:46:31;19.00;;;16.63;;
40847;SDS011;26570;50.962;5.340;2023-05-14T03:49:16;21.07;;;18.00;;
40847;SDS011;26570;50.962;5.340;2023-05-14T03:52:01;21.93;;;16.73;;
40847;SDS011;26570;50.962;5.340;2023-05-14T03:54:46;17.60;;;15.70;;
40847;SDS011;26570;50.962;5.340;2023-05-14T03:57:31;19.97;;;16.10;;
40847;SDS011;26570;50.962;5.340;2023-05-14T04:00:17;27.90;;;19.77;;
40847;SDS011;26570;50.962;5.340;2023-05-14T04:03:02;25.13;;;19.70;;
40847;SDS011;26570;50.962;5.340;2023-05-14T04:05:47;27.77;;;22.97;;
40847;SDS011;26570;50.962;5.340;2023-05-14T04:08:32;29.57;;;22.63;;
40847;SDS011;26570;50.962;5.340;2023-05-14T04:11:18;28.93;;;23.10;;
40847;SDS011;26570;50.962;5.340;2023-05-14T04:14:03;32.53;;;24.27;;
40847;SDS011;26570;50.962;5.340;2023-05-14T04:16:49;26.43;;;21.00;;
40847;SDS011;26570;50.962;5.340;2023-05-14T04:19:33;27.73;;;22.43;;
40847;SDS011;26570;50.962;5.340;2023-05-14T04:22:19;35.07;;;21.83;;
40847;SDS011;26570;50.962;5.340;2023-05-14T04:25:04;25.83;;;21.33;;
40847;SDS011;26570;50.962;5.340;2023-05-14T04:27:50;26.80;;;21.00;;
40847;SDS011;26570;50.962;5.340;2023-05-14T04:30:34;28.47;;;23.57;;
40847;SDS011;26570;50.962;5.340;2023-05-14T04:33:19;30.10;;;22.77;;
40847;SDS011;26570;50.962;5.340;2023-05-14T04:36:05;32.43;;;25.10;;
40847;SDS011;26570;50.962;5.340;2023-05-14T04:38:51;36.63;;;26.07;;
40847;SDS011;26570;50.962;5.340;2023-05-14T04:41:36;35.07;;;26.53;;
40847;SDS011;26570;50.962;5.340;2023-05-14T04:44:21;41.50;;;30.67;;
40847;SDS011;26570;50.962;5.340;2023-05-14T04:47:07;43.90;;;30.43;;
40847;SDS011;26570;50.962;5.340;2023-05-14T04:49:52;49.67;;;33.73;;
40847;SDS011;26570;50.962;5.340;2023-05-14T04:52:37;44.27;;;32.10;;
40847;SDS011;26570;50.962;5.340;2023-05-14T04:55:23;47.20;;;32.63;;
40847;SDS011;26570;50.962;5.340;2023-05-14T04:58:08;49.10;;;32.07;;
40847;SDS011;26570;50.962;5.340;2023-05-14T05:00:53;49.80;;;34.03;;
40847;SDS011;26570;50.962;5.340;2023-05-14T05:03:39;51.93;;;35.87;;
40847;SDS011;26570;50.962;5.340;2023-05-14T05:09:28;49.33;;;36.55;;
40847;SDS011;26570;50.962;5.340;2023-05-14T05:12:14;54.30;;;35.57;;
40847;SDS011;26570;50.962;5.340;2023-05-14T05:15:02;52.37;;;36.40;;
40847;SDS011;26570;50.962;5.340;2023-05-14T05:17:48;54.90;;;39.53;;
40847;SDS011;26570;50.962;5.340;2023-05-14T05:20:34;53.23;;;38.80;;
40847;SDS011;26570;50.962;5.340;2023-05-14T05:23:19;51.20;;;37.33;;
40847;SDS011;26570;50.962;5.340;2023-05-14T05:26:04;52.93;;;38.63;;
40847;SDS011;26570;50.962;5.340;2023-05-14T05:28:52;56.13;;;40.07;;
40847;SDS011;26570;50.962;5.340;2023-05-14T05:31:38;54.57;;;37.97;;
40847;SDS011;26570;50.962;5.340;2023-05-14T05:34:46;51.87;;;40.13;;
40847;SDS011;26570;50.962;5.340;2023-05-14T05:37:31;52.07;;;37.17;;
40847;SDS011;26570;50.962;5.340;2023-05-14T05:40:17;47.63;;;36.33;;
40847;SDS011;26570;50.962;5.340;2023-05-14T05:43:03;43.23;;;35.80;;
40847;SDS011;26570;50.962;5.340;2023-05-14T05:46:10;45.90;;;35.30;;
40847;SDS011;26570;50.962;5.340;2023-05-14T05:48:56;44.03;;;35.13;;
40847;SDS011;26570;50.962;5.340;2023-05-14T05:51:41;52.00;;;36.63;;
40847;SDS011;26570;50.962;5.340;2023-05-14T05:54:27;45.87;;;37.23;;
40847;SDS011;26570;50.962;5.340;2023-05-14T05:57:12;43.40;;;34.10;;
40847;SDS011;26570;50.962;5.340;2023-05-14T05:59:57;44.33;;;34.67;;
40847;SDS011;26570;50.962;5.340;2023-05-14T06:02:45;48.50;;;35.80;;
40847;SDS011;26570;50.962;5.340;2023-05-14T06:05:30;42.13;;;35.80;;
40847;SDS011;26570;50.962;5.340;2023-05-14T06:08:15;50.83;;;34.17;;
40847;SDS011;26570;50.962;5.340;2023-05-14T06:11:00;42.83;;;35.43;;
40847;SDS011;26570;50.962;5.340;2023-05-14T06:13:46;46.20;;;34.83;;
40847;SDS011;26570;50.962;5.340;2023-05-14T06:16:32;42.93;;;32.03;;
40847;SDS011;26570;50.962;5.340;2023-05-14T06:19:18;35.73;;;31.10;;
40847;SDS011;26570;50.962;5.340;2023-05-14T06:22:03;36.47;;;29.67;;
40847;SDS011;26570;50.962;5.340;2023-05-14T06:25:11;33.77;;;27.97;;
40847;SDS011;26570;50.962;5.340;2023-05-14T06:27:59;31.80;;;25.53;;
40847;SDS011;26570;50.962;5.340;2023-05-14T06:30:44;28.97;;;24.40;;
40847;SDS011;26570;50.962;5.340;2023-05-14T06:33:33;25.77;;;22.93;;
40847;SDS011;26570;50.962;5.340;2023-05-14T06:36:17;25.50;;;21.27;;
40847;SDS011;26570;50.962;5.340;2023-05-14T06:39:04;27.27;;;20.37;;
40847;SDS011;26570;50.962;5.340;2023-05-14T06:41:49;26.97;;;20.50;;
40847;SDS011;26570;50.962;5.340;2023-05-14T06:44:35;24.67;;;19.63;;
40847;SDS011;26570;50.962;5.340;2023-05-14T06:47:21;20.63;;;18.63;;
40847;SDS011;26570;50.962;5.340;2023-05-14T06:50:08;20.23;;;18.17;;
40847;SDS011;26570;50.962;5.340;2023-05-14T06:52:53;20.23;;;16.85;;
40847;SDS011;26570;50.962;5.340;2023-05-14T06:55:40;19.20;;;15.30;;
40847;SDS011;26570;50.962;5.340;2023-05-14T06:58:25;16.98;;;15.27;;
40847;SDS011;26570;50.962;5.340;2023-05-14T07:01:11;19.73;;;15.82;;
40847;SDS011;26570;50.962;5.340;2023-05-14T07:03:57;18.23;;;15.43;;
40847;SDS011;26570;50.962;5.340;2023-05-14T07:06:43;19.92;;;15.60;;
40847;SDS011;26570;50.962;5.340;2023-05-14T07:09:29;16.70;;;14.95;;
40847;SDS011;26570;50.962;5.340;2023-05-14T07:12:14;16.00;;;13.88;;
40847;SDS011;26570;50.962;5.340;2023-05-14T07:15:00;14.57;;;13.15;;
40847;SDS011;26570;50.962;5.340;2023-05-14T07:17:46;17.90;;;14.00;;
40847;SDS011;26570;50.962;5.340;2023-05-14T07:20:31;15.48;;;13.63;;
40847;SDS011;26570;50.962;5.340;2023-05-14T07:23:17;15.68;;;14.25;;
40847;SDS011;26570;50.962;5.340;2023-05-14T07:26:03;18.23;;;16.20;;
40847;SDS011;26570;50.962;5.340;2023-05-14T07:28:49;19.35;;;17.55;;
40847;SDS011;26570;50.962;5.340;2023-05-14T07:31:34;22.30;;;18.00;;
40847;SDS011;26570;50.962;5.340;2023-05-14T07:34:20;21.50;;;18.00;;
40847;SDS011;26570;50.962;5.340;2023-05-14T07:37:06;20.77;;;18.67;;
40847;SDS011;26570;50.962;5.340;2023-05-14T07:39:52;22.52;;;19.05;;
40847;SDS011;26570;50.962;5.340;2023-05-14T07:42:37;20.40;;;18.25;;
40847;SDS011;26570;50.962;5.340;2023-05-14T07:45:22;21.05;;;18.85;;
40847;SDS011;26570;50.962;5.340;2023-05-14T07:48:07;23.73;;;19.40;;
40847;SDS011;26570;50.962;5.340;2023-05-14T07:50:53;25.05;;;21.38;;
40847;SDS011;26570;50.962;5.340;2023-05-14T07:53:39;27.98;;;22.52;;
40847;SDS011;26570;50.962;5.340;2023-05-14T07:56:24;24.30;;;20.45;;
40847;SDS011;26570;50.962;5.340;2023-05-14T07:59:10;22.70;;;19.50;;
40847;SDS011;26570;50.962;5.340;2023-05-14T08:01:55;24.10;;;19.48;;
40847;SDS011;26570;50.962;5.340;2023-05-14T08:04:40;23.83;;;21.40;;
40847;SDS011;26570;50.962;5.340;2023-05-14T08:07:25;27.20;;;21.88;;
40847;SDS011;26570;50.962;5.340;2023-05-14T08:10:12;28.90;;;22.73;;
40847;SDS011;26570;50.962;5.340;2023-05-14T08:12:57;26.10;;;20.00;;
40847;SDS011;26570;50.962;5.340;2023-05-14T08:15:42;22.77;;;20.52;;
40847;SDS011;26570;50.962;5.340;2023-05-14T08:18:27;25.45;;;20.27;;
40847;SDS011;26570;50.962;5.340;2023-05-14T08:21:12;25.38;;;18.73;;
40847;SDS011;26570;50.962;5.340;2023-05-14T08:23:58;21.65;;;18.05;;
40847;SDS011;26570;50.962;5.340;2023-05-14T08:26:43;24.55;;;19.50;;
40847;SDS011;26570;50.962;5.340;2023-05-14T08:29:28;23.55;;;19.83;;
40847;SDS011;26570;50.962;5.340;2023-05-14T08:32:13;24.13;;;18.85;;
40847;SDS011;26570;50.962;5.340;2023-05-14T08:34:59;18.85;;;16.00;;
40847;SDS011;26570;50.962;5.340;2023-05-14T08:37:44;19.60;;;16.45;;
40847;SDS011;26570;50.962;5.340;2023-05-14T08:40:29;18.08;;;15.05;;
40847;SDS011;26570;50.962;5.340;2023-05-14T08:43:15;20.75;;;16.85;;
40847;SDS011;26570;50.962;5.340;2023-05-14T08:46:08;16.02;;;13.57;;
40847;SDS011;26570;50.962;5.340;2023-05-14T08:49:04;16.48;;;14.63;;
40847;SDS011;26570;50.962;5.340;2023-05-14T08:51:58;15.77;;;12.88;;
40847;SDS011;26570;50.962;5.340;2023-05-14T08:54:44;14.55;;;12.13;;
40847;SDS011;26570;50.962;5.340;2023-05-14T08:57:32;14.32;;;12.82;;
40847;SDS011;26570;50.962;5.340;2023-05-14T09:00:18;17.02;;;11.95;;
40847;SDS011;26570;50.962;5.340;2023-05-14T09:03:03;13.13;;;11.75;;
40847;SDS011;26570;50.962;5.340;2023-05-14T09:05:50;14.13;;;12.07;;
40847;SDS011;26570;50.962;5.340;2023-05-14T09:08:36;16.30;;;13.75;;
40847;SDS011;26570;50.962;5.340;2023-05-14T09:11:21;16.25;;;13.00;;
40847;SDS011;26570;50.962;5.340;2023-05-14T09:14:08;17.58;;;13.18;;
40847;SDS011;26570;50.962;5.340;2023-05-14T09:16:56;17.02;;;12.88;;
40847;SDS011;26570;50.962;5.340;2023-05-14T09:19:42;14.20;;;12.75;;
40847;SDS011;26570;50.962;5.340;2023-05-14T09:22:30;15.90;;;12.05;;
40847;SDS011;26570;50.962;5.340;2023-05-14T09:25:15;16.67;;;12.77;;
40847;SDS011;26570;50.962;5.340;2023-05-14T09:28:05;13.23;;;11.95;;
40847;SDS011;26570;50.962;5.340;2023-05-14T09:30:53;13.70;;;12.25;;
40847;SDS011;26570;50.962;5.340;2023-05-14T09:33:39;12.45;;;10.95;;
40847;SDS011;26570;50.962;5.340;2023-05-14T09:36:25;15.52;;;11.65;;
40847;SDS011;26570;50.962;5.340;2023-05-14T09:39:10;13.23;;;11.38;;
40847;SDS011;26570;50.962;5.340;2023-05-14T09:41:56;15.40;;;12.00;;
40847;SDS011;26570;50.962;5.340;2023-05-14T09:44:41;13.27;;;11.98;;
40847;SDS011;26570;50.962;5.340;2023-05-14T09:47:27;12.27;;;11.07;;
40847;SDS011;26570;50.962;5.340;2023-05-14T09:50:12;13.05;;;11.43;;
40847;SDS011;26570;50.962;5.340;2023-05-14T09:52:58;11.30;;;10.20;;
40847;SDS011;26570;50.962;5.340;2023-05-14T09:55:44;15.48;;;11.48;;
40847;SDS011;26570;50.962;5.340;2023-05-14T09:58:29;12.77;;;11.32;;
40847;SDS011;26570;50.962;5.340;2023-05-14T10:01:15;12.45;;;10.77;;
40847;SDS011;26570;50.962;5.340;2023-05-14T10:04:06;12.45;;;10.23;;
40847;SDS011;26570;50.962;5.340;2023-05-14T10:06:52;13.95;;;10.43;;
40847;SDS011;26570;50.962;5.340;2023-05-14T10:09:39;12.27;;;10.43;;
40847;SDS011;26570;50.962;5.340;2023-05-14T10:12:27;12.70;;;10.18;;
40847;SDS011;26570;50.962;5.340;2023-05-14T10:15:18;13.02;;;10.02;;
40847;SDS011;26570;50.962;5.340;2023-05-14T10:18:09;11.52;;;10.32;;
40847;SDS011;26570;50.962;5.340;2023-05-14T10:21:02;12.57;;;10.25;;
40847;SDS011;26570;50.962;5.340;2023-05-14T10:23:48;12.35;;;10.32;;
40847;SDS011;26570;50.962;5.340;2023-05-14T10:26:35;13.35;;;10.65;;
40847;SDS011;26570;50.962;5.340;2023-05-14T10:29:30;15.48;;;11.02;;
40847;SDS011;26570;50.962;5.340;2023-05-14T10:32:19;12.95;;;10.98;;
40847;SDS011;26570;50.962;5.340;2023-05-14T10:35:15;10.50;;;9.40;;
40847;SDS011;26570;50.962;5.340;2023-05-14T10:38:06;12.60;;;9.80;;
40847;SDS011;26570;50.962;5.340;2023-05-14T10:40:58;15.32;;;10.50;;
40847;SDS011;26570;50.962;5.340;2023-05-14T10:43:47;10.48;;;9.48;;
40847;SDS011;26570;50.962;5.340;2023-05-14T10:46:33;13.35;;;10.38;;
40847;SDS011;26570;50.962;5.340;2023-05-14T10:49:18;10.30;;;9.15;;
40847;SDS011;26570;50.962;5.340;2023-05-14T10:52:06;13.23;;;9.45;;
40847;SDS011;26570;50.962;5.340;2023-05-14T10:54:59;9.32;;;8.20;;
40847;SDS011;26570;50.962;5.340;2023-05-14T10:57:45;8.52;;;7.63;;
40847;SDS011;26570;50.962;5.340;2023-05-14T11:00:32;10.75;;;8.68;;
40847;SDS011;26570;50.962;5.340;2023-05-14T11:03:18;7.78;;;6.80;;
40847;SDS011;26570;50.962;5.340;2023-05-14T11:06:04;7.38;;;6.30;;
40847;SDS011;26570;50.962;5.340;2023-05-14T11:08:50;6.35;;;5.72;;
40847;SDS011;26570;50.962;5.340;2023-05-14T11:11:35;7.88;;;6.55;;
40847;SDS011;26570;50.962;5.340;2023-05-14T11:14:20;9.10;;;7.50;;
40847;SDS011;26570;50.962;5.340;2023-05-14T11:17:06;9.13;;;8.18;;
40847;SDS011;26570;50.962;5.340;2023-05-14T11:19:50;8.68;;;7.10;;
40847;SDS011;26570;50.962;5.340;2023-05-14T11:22:37;8.20;;;6.68;;
40847;SDS011;26570;50.962;5.340;2023-05-14T11:25:24;7.38;;;5.80;;
40847;SDS011;26570;50.962;5.340;2023-05-14T11:28:09;7.57;;;5.45;;
40847;SDS011;26570;50.962;5.340;2023-05-14T11:30:54;7.00;;;5.65;;
40847;SDS011;26570;50.962;5.340;2023-05-14T11:33:39;4.95;;;3.45;;
40847;SDS011;26570;50.962;5.340;2023-05-14T11:36:25;7.63;;;4.22;;
40847;SDS011;26570;50.962;5.340;2023-05-14T11:39:16;6.07;;;4.82;;
40847;SDS011;26570;50.962;5.340;2023-05-14T11:42:02;5.15;;;4.70;;
40847;SDS011;26570;50.962;5.340;2023-05-14T11:44:49;7.90;;;5.18;;
40847;SDS011;26570;50.962;5.340;2023-05-14T11:47:34;5.35;;;3.75;;
40847;SDS011;26570;50.962;5.340;2023-05-14T11:50:20;4.93;;;4.43;;
40847;SDS011;26570;50.962;5.340;2023-05-14T11:53:05;4.07;;;3.67;;
40847;SDS011;26570;50.962;5.340;2023-05-14T11:55:50;3.33;;;2.78;;
40847;SDS011;26570;50.962;5.340;2023-05-14T11:58:37;6.57;;;2.65;;
40847;SDS011;26570;50.962;5.340;2023-05-14T12:01:22;3.80;;;2.55;;
40847;SDS011;26570;50.962;5.340;2023-05-14T12:04:06;3.28;;;2.80;;
40847;SDS011;26570;50.962;5.340;2023-05-14T12:06:52;3.67;;;2.60;;
40847;SDS011;26570;50.962;5.340;2023-05-14T12:09:39;1.90;;;1.23;;
40847;SDS011;26570;50.962;5.340;2023-05-14T12:12:26;4.57;;;3.47;;
40847;SDS011;26570;50.962;5.340;2023-05-14T12:15:11;5.30;;;4.03;;
40847;SDS011;26570;50.962;5.340;2023-05-14T12:17:56;4.53;;;2.95;;
40847;SDS011;26570;50.962;5.340;2023-05-14T12:20:45;2.58;;;2.30;;
40847;SDS011;26570;50.962;5.340;2023-05-14T12:23:34;6.22;;;2.63;;
40847;SDS011;26570;50.962;5.340;2023-05-14T12:26:22;4.07;;;3.17;;
40847;SDS011;26570;50.962;5.340;2023-05-14T12:29:11;6.28;;;3.45;;
40847;SDS011;26570;50.962;5.340;2023-05-14T12:31:57;3.78;;;3.30;;
40847;SDS011;26570;50.962;5.340;2023-05-14T12:34:42;4.68;;;2.60;;
40847;SDS011;26570;50.962;5.340;2023-05-14T12:37:27;5.43;;;3.00;;
40847;SDS011;26570;50.962;5.340;2023-05-14T12:40:12;5.35;;;4.70;;
40847;SDS011;26570;50.962;5.340;2023-05-14T12:42:56;5.65;;;4.70;;
40847;SDS011;26570;50.962;5.340;2023-05-14T12:45:41;5.97;;;4.05;;
40847;SDS011;26570;50.962;5.340;2023-05-14T12:48:26;7.72;;;4.43;;
40847;SDS011;26570;50.962;5.340;2023-05-14T12:51:11;5.07;;;4.43;;
40847;SDS011;26570;50.962;5.340;2023-05-14T12:53:57;4.57;;;3.97;;
40847;SDS011;26570;50.962;5.340;2023-05-14T12:56:42;3.92;;;3.58;;
40847;SDS011;26570;50.962;5.340;2023-05-14T12:59:26;5.88;;;3.55;;
40847;SDS011;26570;50.962;5.340;2023-05-14T13:02:11;4.35;;;3.95;;
40847;SDS011;26570;50.962;5.340;2023-05-14T13:04:56;5.75;;;2.80;;
40847;SDS011;26570;50.962;5.340;2023-05-14T13:07:40;2.83;;;2.35;;
40847;SDS011;26570;50.962;5.340;2023-05-14T13:10:25;5.80;;;2.50;;
40847;SDS011;26570;50.962;5.340;2023-05-14T13:13:10;2.70;;;2.38;;
40847;SDS011;26570;50.962;5.340;2023-05-14T13:15:55;6.07;;;2.17;;
40847;SDS011;26570;50.962;5.340;2023-05-14T13:18:39;5.45;;;2.95;;
40847;SDS011;26570;50.962;5.340;2023-05-14T13:21:24;6.55;;;3.00;;
40847;SDS011;26570;50.962;5.340;2023-05-14T13:24:30;4.45;;;3.53;;
40847;SDS011;26570;50.962;5.340;2023-05-14T13:27:15;5.28;;;3.35;;
40847;SDS011;26570;50.962;5.340;2023-05-14T13:30:02;3.78;;;2.97;;
40847;SDS011;26570;50.962;5.340;2023-05-14T13:32:47;5.35;;;2.85;;
40847;SDS011;26570;50.962;5.340;2023-05-14T13:35:32;2.85;;;2.28;;
40847;SDS011;26570;50.962;5.340;2023-05-14T13:38:17;3.45;;;2.88;;
40847;SDS011;26570;50.962;5.340;2023-05-14T13:41:03;4.72;;;2.10;;
40847;SDS011;26570;50.962;5.340;2023-05-14T13:43:48;3.70;;;1.80;;
40847;SDS011;26570;50.962;5.340;2023-05-14T13:46:33;2.80;;;1.67;;
40847;SDS011;26570;50.962;5.340;2023-05-14T13:49:18;3.05;;;1.27;;
40847;SDS011;26570;50.962;5.340;2023-05-14T13:52:03;7.55;;;3.08;;
40847;SDS011;26570;50.962;5.340;2023-05-14T13:54:48;3.75;;;2.45;;
40847;SDS011;26570;50.962;5.340;2023-05-14T13:57:33;4.72;;;2.10;;
40847;SDS011;26570;50.962;5.340;2023-05-14T14:00:19;3.25;;;1.42;;
40847;SDS011;26570;50.962;5.340;2023-05-14T14:03:05;3.15;;;1.42;;
40847;SDS011;26570;50.962;5.340;2023-05-14T14:05:50;2.67;;;1.70;;
40847;SDS011;26570;50.962;5.340;2023-05-14T14:08:36;2.50;;;1.45;;
40847;SDS011;26570;50.962;5.340;2023-05-14T14:11:21;5.53;;;1.92;;
40847;SDS011;26570;50.962;5.340;2023-05-14T14:14:06;3.45;;;3.05;;
40847;SDS011;26570;50.962;5.340;2023-05-14T14:16:51;8.68;;;4.03;;
40847;SDS011;26570;50.962;5.340;2023-05-14T14:19:35;6.72;;;3.60;;
40847;SDS011;26570;50.962;5.340;2023-05-14T14:22:20;4.47;;;3.33;;
40847;SDS011;26570;50.962;5.340;2023-05-14T14:25:05;6.43;;;4.25;;
40847;SDS011;26570;50.962;5.340;2023-05-14T14:27:51;6.38;;;2.92;;
40847;SDS011;26570;50.962;5.340;2023-05-14T14:30:36;4.53;;;2.92;;
40847;SDS011;26570;50.962;5.340;2023-05-14T14:33:21;6.20;;;3.40;;
40847;SDS011;26570;50.962;5.340;2023-05-14T14:36:06;4.95;;;2.53;;
40847;SDS011;26570;50.962;5.340;2023-05-14T14:38:51;4.15;;;3.20;;
40847;SDS011;26570;50.962;5.340;2023-05-14T14:41:36;4.18;;;2.38;;
40847;SDS011;26570;50.962;5.340;2023-05-14T14:44:20;2.95;;;2.40;;
40847;SDS011;26570;50.962;5.340;2023-05-14T14:47:05;5.15;;;2.50;;
40847;SDS011;26570;50.962;5.340;2023-05-14T14:49:50;3.53;;;2.13;;
40847;SDS011;26570;50.962;5.340;2023-05-14T14:52:35;3.90;;;2.15;;
40847;SDS011;26570;50.962;5.340;2023-05-14T14:55:40;2.97;;;2.58;;
40847;SDS011;26570;50.962;5.340;2023-05-14T14:58:25;2.72;;;2.25;;
40847;SDS011;26570;50.962;5.340;2023-05-14T15:01:10;4.05;;;2.58;;
40847;SDS011;26570;50.962;5.340;2023-05-14T15:03:54;5.68;;;2.20;;
40847;SDS011;26570;50.962;5.340;2023-05-14T15:06:39;3.13;;;1.80;;
40847;SDS011;26570;50.962;5.340;2023-05-14T15:09:24;4.45;;;2.28;;
40847;SDS011;26570;50.962;5.340;2023-05-14T15:12:09;3.42;;;1.95;;
40847;SDS011;26570;50.962;5.340;2023-05-14T15:14:54;3.28;;;1.60;;
40847;SDS011;26570;50.962;5.340;2023-05-14T15:17:39;3.92;;;1.15;;
40847;SDS011;26570;50.962;5.340;2023-05-14T15:20:24;2.97;;;1.40;;
40847;SDS011;26570;50.962;5.340;2023-05-14T15:23:09;5.43;;;1.55;;
40847;SDS011;26570;50.962;5.340;2023-05-14T15:25:54;1.88;;;1.13;;
40847;SDS011;26570;50.962;5.340;2023-05-14T15:28:39;3.17;;;1.10;;
40847;SDS011;26570;50.962;5.340;2023-05-14T15:31:24;2.83;;;1.48;;
40847;SDS011;26570;50.962;5.340;2023-05-14T15:34:09;2.40;;;1.73;;
40847;SDS011;26570;50.962;5.340;2023-05-14T15:36:54;4.30;;;1.50;;
40847;SDS011;26570;50.962;5.340;2023-05-14T15:39:39;5.13;;;1.63;;
40847;SDS011;26570;50.962;5.340;2023-05-14T15:42:25;4.05;;;2.05;;
40847;SDS011;26570;50.962;5.340;2023-05-14T15:45:10;4.65;;;1.23;;
40847;SDS011;26570;50.962;5.340;2023-05-14T15:47:57;2.75;;;1.38;;
40847;SDS011;26570;50.962;5.340;2023-05-14T15:50:42;4.78;;;1.00;;
40847;SDS011;26570;50.962;5.340;2023-05-14T15:53:27;3.70;;;1.27;;
40847;SDS011;26570;50.962;5.340;2023-05-14T15:56:15;7.78;;;1.00;;
40847;SDS011;26570;50.962;5.340;2023-05-14T15:58:59;2.10;;;1.00;;
40847;SDS011;26570;50.962;5.340;2023-05-14T16:01:45;2.85;;;0.80;;
40847;SDS011;26570;50.962;5.340;2023-05-14T16:04:29;2.63;;;0.80;;
40847;SDS011;26570;50.962;5.340;2023-05-14T16:07:14;4.45;;;2.10;;
40847;SDS011;26570;50.962;5.340;2023-05-14T16:09:59;9.30;;;2.40;;
40847;SDS011;26570;50.962;5.340;2023-05-14T16:12:43;4.68;;;1.10;;
40847;SDS011;26570;50.962;5.340;2023-05-14T16:15:28;3.38;;;1.00;;
40847;SDS011;26570;50.962;5.340;2023-05-14T16:18:14;3.15;;;0.90;;
40847;SDS011;26570;50.962;5.340;2023-05-14T16:20:59;1.55;;;0.88;;
40847;SDS011;26570;50.962;5.340;2023-05-14T16:23:45;2.58;;;0.80;;
40847;SDS011;26570;50.962;5.340;2023-05-14T16:26:29;4.45;;;0.88;;
40847;SDS011;26570;50.962;5.340;2023-05-14T16:29:14;3.88;;;1.27;;
40847;SDS011;26570;50.962;5.340;2023-05-14T16:31:59;2.85;;;1.17;;
40847;SDS011;26570;50.962;5.340;2023-05-14T16:34:45;5.22;;;1.00;;
40847;SDS011;26570;50.962;5.340;2023-05-14T16:37:32;3.05;;;1.20;;
40847;SDS011;26570;50.962;5.340;2023-05-14T16:40:17;3.60;;;1.50;;
40847;SDS011;26570;50.962;5.340;2023-05-14T16:43:02;6.25;;;1.10;;